Airfield :
LOGIN :

Register | Disclaimer

   EN    FR    IT 

 










Legend :    VFR   Marginal VFR   IFR   Intensive IFR   Very Intensive IFR
Visi :
Ceiling :
>= 8 km
>= 3000ft
5 to 8 km
1000 to 3000 ft
1500m to 5 km
500 to 1000 ft
800 to 1500m
200 to 500 ft
< 800m
< 200 ft
Symbols :   Thunderstorms  Fog  Heavy snow  Heavy precipitations  Wind > 20 kt
SIGMETs :     Misc.  Thunderstorms  Icing  Turbulence  Mountain Waves  Volcanic Ashes







- Airport Elevation : 1043 ft
- IATA code : SLD


LZSL - Sliac

CURRENT METAR :
  • 240830Z VRB02KT 9999 FEW035 25/15 Q1018

EXPIRED METARs :
  • 240800Z 10003KT 060V150 9999 FEW034 24/15 Q1018
  • 240730Z VRB02KT 9999 FEW032 23/15 Q1019
  • 240700Z VRB02KT 9999 FEW028 22/14 Q1019
  • 240630Z VRB01KT CAVOK 21/15 Q1019
  • 240600Z VRB01KT CAVOK 19/15 Q1019
  • 240552Z VRB01KT CAVOK 19/15 Q1019
  • 240530Z 00000KT CAVOK 17/15 Q1019

TAF TAF LZSL
Valid from the 24 at 06:00 until the 24 at 15:00 UTC


240500Z 2406/2415 VRB02KT CAVOK
BECMG 2407/2409 14005KT 9999 FEW040
BECMG 2411/2413 03010KT SCT055
No reported NOTAMs for that airfield.



MET'MAP, your aeronautical weather chart ! - Copyright ORBIFLY December 2007 - Disclaimer

ORBIFLY MET'MAP TEAM :

Programming & Development : Alexandra Zaïnal
Concept & Development : Baudouin d'Aumeries
Co-Development & Prog : Marc-Olivier Méhu
Technical & hardware support : Manuel Goepfert

Contact : metmap@orbifly.com




SOURCES & CREDITS :

   NOAA